Main page
METAR-TAF:

Airports :

London-Southend, England

London Southend Airport

latitude: 51-34N, longitude: 000-42E, elevation: 15 m

Current weather observation

The report was made 19 minutes ago, at 05:20 UTC
Wind 12 kt from the South/Southwest
Temperature 6°C
Humidity 81%
Pressure 991 hPa
Visibility 10 km or more
no clouds below 1500 m and no cumulonimbus

METAR: EGMC 070520Z 20012KT CAVOK 06/03 Q0991

Time: 05:39 (05:39 UTC)

Forecast

The report was made 3 hours and 42 minutes ago, at 01:57 UTC
Forecast valid from 07 at 03 UTC to 07 at 12 UTC
Wind 12 kt from the South/Southwest
Visibility 10 km or more
Scattered clouds at a height of 3000 ft
Probability 30% :
Temporary
from 07 at 03 UTC to 07 at 12 UTC
Visibility: 7000 m
rain showers
Temporary
from 07 at 06 UTC to 07 at 09 UTC
Wind 15 kt from the Southwest with gusts up to 25 kt

TAF: EGMC 070157Z 0703/0712 21012KT 9999 SCT030 PROB30 TEMPO 0703/0712 7000 SHRA TEMPO 0706/0709 22015G25KT

METAR-TAF

Weather observations and forecasts of more than 4000 airports (METAR and TAF reports).

The available stations are represented by yellow and red dots on the map.

Hover mouse over dot to see the name of the station.

Then click to see weather observations and forecasts.

To change the map : click on the green buttons with a black cross to zoom in, on the green button with a dash to zoom out, or on the green arrows for adjacent maps.


METAR-TAF: